sensor_id;sensor_type;location;lat;lon;timestamp;temperature;humidity
28530;DHT22;15737;49.760;6.632;2022-12-18T00:02:06;-9.10;99.90
28530;DHT22;15737;49.760;6.632;2022-12-18T00:04:31;-9.10;99.90
28530;DHT22;15737;49.760;6.632;2022-12-18T00:06:57;-9.00;99.90
28530;DHT22;15737;49.760;6.632;2022-12-18T00:09:25;-9.10;99.90
28530;DHT22;15737;49.760;6.632;2022-12-18T00:11:51;-9.10;99.90
28530;DHT22;15737;49.760;6.632;2022-12-18T00:14:16;-9.00;99.90
28530;DHT22;15737;49.760;6.632;2022-12-18T00:17:08;-9.00;99.90
28530;DHT22;15737;49.760;6.632;2022-12-18T00:20:09;-9.10;99.90
28530;DHT22;15737;49.760;6.632;2022-12-18T00:22:35;-9.10;99.90
28530;DHT22;15737;49.760;6.632;2022-12-18T00:25:00;-9.10;99.90
28530;DHT22;15737;49.760;6.632;2022-12-18T00:27:26;-9.10;99.90
28530;DHT22;15737;49.760;6.632;2022-12-18T00:29:51;-9.00;99.90
28530;DHT22;15737;49.760;6.632;2022-12-18T00:32:17;-9.00;99.90
28530;DHT22;15737;49.760;6.632;2022-12-18T00:34:42;-9.10;99.90
28530;DHT22;15737;49.760;6.632;2022-12-18T00:37:09;-9.10;99.90
28530;DHT22;15737;49.760;6.632;2022-12-18T00:39:34;-9.20;99.90
28530;DHT22;15737;49.760;6.632;2022-12-18T00:42:00;-9.10;99.90
28530;DHT22;15737;49.760;6.632;2022-12-18T00:44:44;-9.10;99.90
28530;DHT22;15737;49.760;6.632;2022-12-18T00:47:09;-9.00;99.90
28530;DHT22;15737;49.760;6.632;2022-12-18T00:49:35;-9.00;99.90
28530;DHT22;15737;49.760;6.632;2022-12-18T00:52:00;-8.80;99.90
28530;DHT22;15737;49.760;6.632;2022-12-18T00:54:26;-8.80;99.90
28530;DHT22;15737;49.760;6.632;2022-12-18T00:56:51;-8.80;99.90
28530;DHT22;15737;49.760;6.632;2022-12-18T00:59:17;-8.70;99.90
28530;DHT22;15737;49.760;6.632;2022-12-18T01:01:43;-8.70;99.90
28530;DHT22;15737;49.760;6.632;2022-12-18T01:04:08;-8.90;99.90
28530;DHT22;15737;49.760;6.632;2022-12-18T01:06:34;-9.00;99.90
28530;DHT22;15737;49.760;6.632;2022-12-18T01:09:00;-9.10;99.90
28530;DHT22;15737;49.760;6.632;2022-12-18T01:14:00;-9.00;99.90
28530;DHT22;15737;49.760;6.632;2022-12-18T01:16:26;-9.00;99.90
28530;DHT22;15737;49.760;6.632;2022-12-18T01:19:16;-9.00;99.90
28530;DHT22;15737;49.760;6.632;2022-12-18T01:22:25;-9.00;99.90
28530;DHT22;15737;49.760;6.632;2022-12-18T01:24:50;-8.90;99.90
28530;DHT22;15737;49.760;6.632;2022-12-18T01:27:16;-8.90;99.90
28530;DHT22;15737;49.760;6.632;2022-12-18T01:29:41;-9.00;99.90
28530;DHT22;15737;49.760;6.632;2022-12-18T01:32:08;-9.00;99.90
28530;DHT22;15737;49.760;6.632;2022-12-18T01:34:35;-8.90;99.90
28530;DHT22;15737;49.760;6.632;2022-12-18T01:37:02;-8.60;99.90
28530;DHT22;15737;49.760;6.632;2022-12-18T01:39:28;-8.60;99.90
28530;DHT22;15737;49.760;6.632;2022-12-18T01:41:53;-8.80;99.90
28530;DHT22;15737;49.760;6.632;2022-12-18T01:47:41;-8.90;99.90
28530;DHT22;15737;49.760;6.632;2022-12-18T01:50:25;-9.10;99.90
28530;DHT22;15737;49.760;6.632;2022-12-18T01:55:55;-9.20;99.90
28530;DHT22;15737;49.760;6.632;2022-12-18T01:58:32;-9.20;99.90
28530;DHT22;15737;49.760;6.632;2022-12-18T02:01:01;-9.30;99.90
28530;DHT22;15737;49.760;6.632;2022-12-18T02:03:26;-9.30;99.90
28530;DHT22;15737;49.760;6.632;2022-12-18T02:06:09;-9.10;99.90
28530;DHT22;15737;49.760;6.632;2022-12-18T02:11:38;-9.10;99.90
28530;DHT22;15737;49.760;6.632;2022-12-18T02:17:15;-9.30;99.90
28530;DHT22;15737;49.760;6.632;2022-12-18T02:26:00;-9.30;99.90
28530;DHT22;15737;49.760;6.632;2022-12-18T02:31:19;-9.30;99.90
28530;DHT22;15737;49.760;6.632;2022-12-18T02:33:47;-9.40;99.90
28530;DHT22;15737;49.760;6.632;2022-12-18T02:36:14;-9.40;99.90
28530;DHT22;15737;49.760;6.632;2022-12-18T02:38:42;-9.30;99.90
28530;DHT22;15737;49.760;6.632;2022-12-18T02:43:49;-9.00;99.90
28530;DHT22;15737;49.760;6.632;2022-12-18T02:46:42;-9.00;99.90
28530;DHT22;15737;49.760;6.632;2022-12-18T02:51:52;-9.30;99.90
28530;DHT22;15737;49.760;6.632;2022-12-18T02:54:30;-9.30;99.90
28530;DHT22;15737;49.760;6.632;2022-12-18T02:57:05;-9.40;99.90
28530;DHT22;15737;49.760;6.632;2022-12-18T03:02:33;-9.30;99.90
28530;DHT22;15737;49.760;6.632;2022-12-18T03:05:24;-9.40;99.90
28530;DHT22;15737;49.760;6.632;2022-12-18T03:08:07;-9.50;99.90
28530;DHT22;15737;49.760;6.632;2022-12-18T03:10:38;-9.50;99.90
28530;DHT22;15737;49.760;6.632;2022-12-18T03:13:09;-9.50;99.90
28530;DHT22;15737;49.760;6.632;2022-12-18T03:15:47;-9.50;99.90
28530;DHT22;15737;49.760;6.632;2022-12-18T03:18:17;-9.40;99.90
28530;DHT22;15737;49.760;6.632;2022-12-18T03:20:46;-9.00;99.90
28530;DHT22;15737;49.760;6.632;2022-12-18T03:23:17;-9.00;99.90
28530;DHT22;15737;49.760;6.632;2022-12-18T03:25:44;-9.00;99.90
28530;DHT22;15737;49.760;6.632;2022-12-18T03:28:13;-8.40;99.90
28530;DHT22;15737;49.760;6.632;2022-12-18T03:30:41;-8.10;99.90
28530;DHT22;15737;49.760;6.632;2022-12-18T03:33:14;-7.80;99.90
28530;DHT22;15737;49.760;6.632;2022-12-18T03:35:43;-7.70;99.90
28530;DHT22;15737;49.760;6.632;2022-12-18T03:38:09;-7.70;99.90
28530;DHT22;15737;49.760;6.632;2022-12-18T03:46:30;-8.60;99.90
28530;DHT22;15737;49.760;6.632;2022-12-18T03:49:10;-8.80;99.90
28530;DHT22;15737;49.760;6.632;2022-12-18T03:51:40;-9.00;99.90
28530;DHT22;15737;49.760;6.632;2022-12-18T03:54:09;-9.20;99.90
28530;DHT22;15737;49.760;6.632;2022-12-18T03:57:31;-9.30;99.90
28530;DHT22;15737;49.760;6.632;2022-12-18T04:00:42;-9.30;99.90
28530;DHT22;15737;49.760;6.632;2022-12-18T04:03:10;-9.40;99.90
28530;DHT22;15737;49.760;6.632;2022-12-18T04:05:37;-9.50;99.90
28530;DHT22;15737;49.760;6.632;2022-12-18T04:08:03;-9.60;99.90
28530;DHT22;15737;49.760;6.632;2022-12-18T04:10:29;-9.60;99.90
28530;DHT22;15737;49.760;6.632;2022-12-18T04:12:58;-9.60;99.90
28530;DHT22;15737;49.760;6.632;2022-12-18T04:15:24;-9.60;99.90
28530;DHT22;15737;49.760;6.632;2022-12-18T04:17:50;-9.60;99.90
28530;DHT22;15737;49.760;6.632;2022-12-18T04:20:16;-9.30;99.90
28530;DHT22;15737;49.760;6.632;2022-12-18T04:27:47;-8.50;99.90
28530;DHT22;15737;49.760;6.632;2022-12-18T04:30:12;-8.20;99.90
28530;DHT22;15737;49.760;6.632;2022-12-18T04:32:38;-8.00;99.90
28530;DHT22;15737;49.760;6.632;2022-12-18T04:35:04;-7.70;99.90
28530;DHT22;15737;49.760;6.632;2022-12-18T04:41:23;-7.60;99.90
28530;DHT22;15737;49.760;6.632;2022-12-18T04:43:54;-7.60;99.90
28530;DHT22;15737;49.760;6.632;2022-12-18T04:46:20;-8.10;99.90
28530;DHT22;15737;49.760;6.632;2022-12-18T04:48:46;-8.50;99.90
28530;DHT22;15737;49.760;6.632;2022-12-18T04:51:12;-8.80;99.90
28530;DHT22;15737;49.760;6.632;2022-12-18T04:53:37;-8.70;99.90
28530;DHT22;15737;49.760;6.632;2022-12-18T04:56:05;-8.50;99.90
28530;DHT22;15737;49.760;6.632;2022-12-18T04:58:36;-8.10;99.90
28530;DHT22;15737;49.760;6.632;2022-12-18T05:01:21;-7.90;99.90
28530;DHT22;15737;49.760;6.632;2022-12-18T05:03:47;-8.20;99.90
28530;DHT22;15737;49.760;6.632;2022-12-18T05:06:12;-8.70;99.90
28530;DHT22;15737;49.760;6.632;2022-12-18T05:08:38;-9.10;99.90
28530;DHT22;15737;49.760;6.632;2022-12-18T05:11:06;-9.40;99.90
28530;DHT22;15737;49.760;6.632;2022-12-18T05:13:53;-9.50;99.90
28530;DHT22;15737;49.760;6.632;2022-12-18T05:16:19;-9.60;99.90
28530;DHT22;15737;49.760;6.632;2022-12-18T05:19:04;-9.70;99.90
28530;DHT22;15737;49.760;6.632;2022-12-18T05:25:04;-9.80;99.90
28530;DHT22;15737;49.760;6.632;2022-12-18T05:27:29;-9.80;99.90
28530;DHT22;15737;49.760;6.632;2022-12-18T05:29:55;-9.70;99.90
28530;DHT22;15737;49.760;6.632;2022-12-18T05:32:20;-9.60;99.90
28530;DHT22;15737;49.760;6.632;2022-12-18T05:34:46;-9.60;99.90
28530;DHT22;15737;49.760;6.632;2022-12-18T05:37:11;-9.60;99.90
28530;DHT22;15737;49.760;6.632;2022-12-18T05:39:38;-9.70;99.90
28530;DHT22;15737;49.760;6.632;2022-12-18T05:42:03;-9.70;99.90
28530;DHT22;15737;49.760;6.632;2022-12-18T05:44:28;-9.70;99.90
28530;DHT22;15737;49.760;6.632;2022-12-18T05:46:54;-9.70;99.90
28530;DHT22;15737;49.760;6.632;2022-12-18T05:51:59;-9.70;99.90
28530;DHT22;15737;49.760;6.632;2022-12-18T05:54:27;-9.70;99.90
28530;DHT22;15737;49.760;6.632;2022-12-18T05:56:53;-9.70;99.90
28530;DHT22;15737;49.760;6.632;2022-12-18T05:59:19;-9.70;99.90
28530;DHT22;15737;49.760;6.632;2022-12-18T06:01:44;-9.60;99.90
28530;DHT22;15737;49.760;6.632;2022-12-18T06:04:10;-9.60;99.90
28530;DHT22;15737;49.760;6.632;2022-12-18T06:06:35;-9.70;99.90
28530;DHT22;15737;49.760;6.632;2022-12-18T06:09:02;-9.80;99.90
28530;DHT22;15737;49.760;6.632;2022-12-18T06:11:34;-9.80;99.90
28530;DHT22;15737;49.760;6.632;2022-12-18T06:14:00;-9.70;99.90
28530;DHT22;15737;49.760;6.632;2022-12-18T06:16:26;-9.50;99.90
28530;DHT22;15737;49.760;6.632;2022-12-18T06:18:52;-9.60;99.90
28530;DHT22;15737;49.760;6.632;2022-12-18T06:21:17;-9.70;99.90
28530;DHT22;15737;49.760;6.632;2022-12-18T06:23:43;-9.80;99.90
28530;DHT22;15737;49.760;6.632;2022-12-18T06:26:43;-9.80;99.90
28530;DHT22;15737;49.760;6.632;2022-12-18T06:30:38;-9.80;99.90
28530;DHT22;15737;49.760;6.632;2022-12-18T06:36:20;-9.10;99.90
28530;DHT22;15737;49.760;6.632;2022-12-18T06:38:46;-9.20;99.90
28530;DHT22;15737;49.760;6.632;2022-12-18T06:41:47;-9.40;99.90
28530;DHT22;15737;49.760;6.632;2022-12-18T06:44:12;-9.50;99.90
28530;DHT22;15737;49.760;6.632;2022-12-18T06:46:38;-9.50;99.90
28530;DHT22;15737;49.760;6.632;2022-12-18T06:49:09;-9.40;99.90
28530;DHT22;15737;49.760;6.632;2022-12-18T06:51:44;-9.40;99.90
28530;DHT22;15737;49.760;6.632;2022-12-18T06:54:18;-9.50;99.90
28530;DHT22;15737;49.760;6.632;2022-12-18T06:56:50;-9.60;99.90
28530;DHT22;15737;49.760;6.632;2022-12-18T06:59:15;-9.60;99.90
28530;DHT22;15737;49.760;6.632;2022-12-18T07:01:41;-9.50;99.90
28530;DHT22;15737;49.760;6.632;2022-12-18T07:04:27;-9.40;99.90
28530;DHT22;15737;49.760;6.632;2022-12-18T07:07:13;-9.20;99.90
28530;DHT22;15737;49.760;6.632;2022-12-18T07:09:38;-8.70;99.90
28530;DHT22;15737;49.760;6.632;2022-12-18T07:12:04;-8.50;99.90
28530;DHT22;15737;49.760;6.632;2022-12-18T07:14:30;-8.70;99.90
28530;DHT22;15737;49.760;6.632;2022-12-18T07:16:55;-8.70;99.90
28530;DHT22;15737;49.760;6.632;2022-12-18T07:19:21;-8.80;99.90
28530;DHT22;15737;49.760;6.632;2022-12-18T07:21:46;-9.00;99.90
28530;DHT22;15737;49.760;6.632;2022-12-18T07:24:12;-9.20;99.90
28530;DHT22;15737;49.760;6.632;2022-12-18T07:26:37;-9.40;99.90
28530;DHT22;15737;49.760;6.632;2022-12-18T07:29:03;-9.60;99.90
28530;DHT22;15737;49.760;6.632;2022-12-18T07:31:28;-9.60;99.90
28530;DHT22;15737;49.760;6.632;2022-12-18T07:34:01;-9.60;99.90
28530;DHT22;15737;49.760;6.632;2022-12-18T07:36:27;-9.50;99.90
28530;DHT22;15737;49.760;6.632;2022-12-18T07:38:52;-9.50;99.90
28530;DHT22;15737;49.760;6.632;2022-12-18T07:41:18;-9.50;99.90
28530;DHT22;15737;49.760;6.632;2022-12-18T07:43:44;-9.40;99.90
28530;DHT22;15737;49.760;6.632;2022-12-18T07:46:11;-9.20;99.90
28530;DHT22;15737;49.760;6.632;2022-12-18T07:48:39;-8.50;99.90
28530;DHT22;15737;49.760;6.632;2022-12-18T07:51:06;-7.10;99.90
28530;DHT22;15737;49.760;6.632;2022-12-18T07:53:33;-5.50;99.90
28530;DHT22;15737;49.760;6.632;2022-12-18T07:56:00;-4.00;99.90
28530;DHT22;15737;49.760;6.632;2022-12-18T07:58:26;-2.90;99.90
28530;DHT22;15737;49.760;6.632;2022-12-18T08:01:08;-2.00;99.90
28530;DHT22;15737;49.760;6.632;2022-12-18T08:03:34;-1.20;99.90
28530;DHT22;15737;49.760;6.632;2022-12-18T08:06:04;-0.20;99.90
28530;DHT22;15737;49.760;6.632;2022-12-18T08:08:31;0.90;99.90
28530;DHT22;15737;49.760;6.632;2022-12-18T08:10:57;1.60;99.90
28530;DHT22;15737;49.760;6.632;2022-12-18T08:13:23;1.60;99.90
28530;DHT22;15737;49.760;6.632;2022-12-18T08:16:05;1.30;99.90
28530;DHT22;15737;49.760;6.632;2022-12-18T08:18:36;0.60;99.90
28530;DHT22;15737;49.760;6.632;2022-12-18T08:23:35;-1.00;99.90
28530;DHT22;15737;49.760;6.632;2022-12-18T08:26:01;-1.60;99.90
28530;DHT22;15737;49.760;6.632;2022-12-18T08:28:26;-2.10;99.90
28530;DHT22;15737;49.760;6.632;2022-12-18T08:33:22;-2.90;99.90
28530;DHT22;15737;49.760;6.632;2022-12-18T08:35:47;-2.90;99.90
28530;DHT22;15737;49.760;6.632;2022-12-18T08:38:13;-2.80;99.90
28530;DHT22;15737;49.760;6.632;2022-12-18T08:40:39;-2.40;99.90
28530;DHT22;15737;49.760;6.632;2022-12-18T08:43:04;-1.90;99.90
28530;DHT22;15737;49.760;6.632;2022-12-18T08:48:21;-0.70;99.90
28530;DHT22;15737;49.760;6.632;2022-12-18T08:50:57;0.40;99.90
28530;DHT22;15737;49.760;6.632;2022-12-18T08:53:26;1.60;99.90
28530;DHT22;15737;49.760;6.632;2022-12-18T08:55:52;2.70;99.90
28530;DHT22;15737;49.760;6.632;2022-12-18T08:58:18;4.10;99.90
28530;DHT22;15737;49.760;6.632;2022-12-18T09:03:20;6.60;99.90
28530;DHT22;15737;49.760;6.632;2022-12-18T09:05:48;7.90;99.10
28530;DHT22;15737;49.760;6.632;2022-12-18T09:08:13;8.40;96.80
28530;DHT22;15737;49.760;6.632;2022-12-18T09:10:47;8.30;94.80
28530;DHT22;15737;49.760;6.632;2022-12-18T09:13:14;7.20;96.40
28530;DHT22;15737;49.760;6.632;2022-12-18T09:18:17;7.00;95.60
28530;DHT22;15737;49.760;6.632;2022-12-18T09:20:44;5.90;96.30
28530;DHT22;15737;49.760;6.632;2022-12-18T09:23:10;5.30;96.90
28530;DHT22;15737;49.760;6.632;2022-12-18T09:25:37;4.80;97.40
28530;DHT22;15737;49.760;6.632;2022-12-18T09:28:13;5.00;97.30
28530;DHT22;15737;49.760;6.632;2022-12-18T09:33:12;2.80;97.20
28530;DHT22;15737;49.760;6.632;2022-12-18T09:35:38;2.30;98.70
28530;DHT22;15737;49.760;6.632;2022-12-18T09:38:05;1.90;98.80
28530;DHT22;15737;49.760;6.632;2022-12-18T09:41:14;1.50;99.50
28530;DHT22;15737;49.760;6.632;2022-12-18T09:43:45;2.10;99.90
28530;DHT22;15737;49.760;6.632;2022-12-18T09:46:28;2.70;99.20
28530;DHT22;15737;49.760;6.632;2022-12-18T09:48:59;3.00;99.40
28530;DHT22;15737;49.760;6.632;2022-12-18T09:56:41;4.40;99.90
28530;DHT22;15737;49.760;6.632;2022-12-18T09:59:58;4.20;98.10
28530;DHT22;15737;49.760;6.632;2022-12-18T10:02:19;3.00;98.30
28530;DHT22;15737;49.760;6.632;2022-12-18T10:07:27;1.60;99.90
28530;DHT22;15737;49.760;6.632;2022-12-18T10:10:23;1.40;99.90
28530;DHT22;15737;49.760;6.632;2022-12-18T10:16:03;1.40;99.90
28530;DHT22;15737;49.760;6.632;2022-12-18T10:21:11;3.00;99.90
28530;DHT22;15737;49.760;6.632;2022-12-18T10:24:12;3.80;99.90
28530;DHT22;15737;49.760;6.632;2022-12-18T10:26:41;4.40;99.90
28530;DHT22;15737;49.760;6.632;2022-12-18T10:29:12;4.80;99.90
28530;DHT22;15737;49.760;6.632;2022-12-18T10:31:38;4.60;99.90
28530;DHT22;15737;49.760;6.632;2022-12-18T10:34:07;3.70;99.90
28530;DHT22;15737;49.760;6.632;2022-12-18T10:47:56;0.80;99.90
28530;DHT22;15737;49.760;6.632;2022-12-18T10:50:30;0.30;99.90
28530;DHT22;15737;49.760;6.632;2022-12-18T10:52:59;-0.10;99.90
28530;DHT22;15737;49.760;6.632;2022-12-18T10:55:46;-0.10;99.90
28530;DHT22;15737;49.760;6.632;2022-12-18T10:58:29;0.50;99.90
28530;DHT22;15737;49.760;6.632;2022-12-18T11:01:09;0.80;99.90
28530;DHT22;15737;49.760;6.632;2022-12-18T11:03:47;0.70;99.90
28530;DHT22;15737;49.760;6.632;2022-12-18T11:09:02;0.80;99.90
28530;DHT22;15737;49.760;6.632;2022-12-18T11:11:28;1.10;99.90
28530;DHT22;15737;49.760;6.632;2022-12-18T11:14:06;0.90;99.90
28530;DHT22;15737;49.760;6.632;2022-12-18T11:16:43;0.70;99.90
28530;DHT22;15737;49.760;6.632;2022-12-18T11:19:28;0.50;99.90
28530;DHT22;15737;49.760;6.632;2022-12-18T11:21:57;0.60;99.90
28530;DHT22;15737;49.760;6.632;2022-12-18T11:24:32;0.80;99.90
28530;DHT22;15737;49.760;6.632;2022-12-18T11:27:01;0.90;99.90
28530;DHT22;15737;49.760;6.632;2022-12-18T11:29:36;1.10;99.90
28530;DHT22;15737;49.760;6.632;2022-12-18T11:38:28;1.40;99.90
28530;DHT22;15737;49.760;6.632;2022-12-18T11:43:31;2.10;99.90
28530;DHT22;15737;49.760;6.632;2022-12-18T11:46:17;1.70;99.90
28530;DHT22;15737;49.760;6.632;2022-12-18T11:48:57;1.30;99.90
28530;DHT22;15737;49.760;6.632;2022-12-18T11:51:34;0.90;99.90
28530;DHT22;15737;49.760;6.632;2022-12-18T11:56:48;0.60;99.90
28530;DHT22;15737;49.760;6.632;2022-12-18T12:02:19;0.80;99.90
28530;DHT22;15737;49.760;6.632;2022-12-18T12:22:15;1.90;99.90
28530;DHT22;15737;49.760;6.632;2022-12-18T12:31:07;1.90;99.90
28530;DHT22;15737;49.760;6.632;2022-12-18T12:39:48;1.30;99.90
28530;DHT22;15737;49.760;6.632;2022-12-18T12:42:24;1.30;99.90
28530;DHT22;15737;49.760;6.632;2022-12-18T12:45:40;1.40;99.90
28530;DHT22;15737;49.760;6.632;2022-12-18T12:48:14;1.10;99.90
28530;DHT22;15737;49.760;6.632;2022-12-18T12:50:42;0.60;99.90
28530;DHT22;15737;49.760;6.632;2022-12-18T12:53:21;0.30;99.90
28530;DHT22;15737;49.760;6.632;2022-12-18T12:55:47;-0.20;99.90
28530;DHT22;15737;49.760;6.632;2022-12-18T12:58:34;-0.40;99.90
28530;DHT22;15737;49.760;6.632;2022-12-18T13:04:05;-0.90;99.90
28530;DHT22;15737;49.760;6.632;2022-12-18T13:09:13;-1.00;99.90
28530;DHT22;15737;49.760;6.632;2022-12-18T13:11:41;-1.00;99.90
28530;DHT22;15737;49.760;6.632;2022-12-18T13:17:28;-0.70;99.90
28530;DHT22;15737;49.760;6.632;2022-12-18T13:20:11;-0.60;99.90
28530;DHT22;15737;49.760;6.632;2022-12-18T13:22:41;-0.30;99.90
28530;DHT22;15737;49.760;6.632;2022-12-18T13:28:02;-0.80;99.90
28530;DHT22;15737;49.760;6.632;2022-12-18T13:41:01;-1.00;99.90
28530;DHT22;15737;49.760;6.632;2022-12-18T13:48:57;-1.20;99.90
28530;DHT22;15737;49.760;6.632;2022-12-18T13:51:25;-1.30;99.90
28530;DHT22;15737;49.760;6.632;2022-12-18T13:53:58;-1.30;99.90
28530;DHT22;15737;49.760;6.632;2022-12-18T13:56:26;-1.40;99.90
28530;DHT22;15737;49.760;6.632;2022-12-18T14:01:47;-1.00;99.90
28530;DHT22;15737;49.760;6.632;2022-12-18T14:04:27;-0.70;99.90
28530;DHT22;15737;49.760;6.632;2022-12-18T14:06:57;-0.40;99.90
28530;DHT22;15737;49.760;6.632;2022-12-18T14:09:29;-0.20;99.90
28530;DHT22;15737;49.760;6.632;2022-12-18T14:11:55;-0.10;99.90
28530;DHT22;15737;49.760;6.632;2022-12-18T14:17:13;0.10;99.90
28530;DHT22;15737;49.760;6.632;2022-12-18T14:19:47;0.10;99.90
28530;DHT22;15737;49.760;6.632;2022-12-18T14:22:22;0.00;99.90
28530;DHT22;15737;49.760;6.632;2022-12-18T14:27:42;0.00;99.90
28530;DHT22;15737;49.760;6.632;2022-12-18T14:30:38;-0.20;99.90
28530;DHT22;15737;49.760;6.632;2022-12-18T14:33:12;-0.40;99.90
28530;DHT22;15737;49.760;6.632;2022-12-18T14:43:38;-0.70;99.90
28530;DHT22;15737;49.760;6.632;2022-12-18T14:49:17;-0.50;99.90
28530;DHT22;15737;49.760;6.632;2022-12-18T14:51:52;-0.40;99.90
28530;DHT22;15737;49.760;6.632;2022-12-18T14:54:19;-0.40;99.90
28530;DHT22;15737;49.760;6.632;2022-12-18T14:57:06;-0.20;99.90
28530;DHT22;15737;49.760;6.632;2022-12-18T14:59:39;-0.10;99.90
28530;DHT22;15737;49.760;6.632;2022-12-18T15:02:25;-0.10;99.90
28530;DHT22;15737;49.760;6.632;2022-12-18T15:07:46;-0.20;99.90
28530;DHT22;15737;49.760;6.632;2022-12-18T15:12:50;-0.40;99.90
28530;DHT22;15737;49.760;6.632;2022-12-18T15:18:11;-0.70;99.90
28530;DHT22;15737;49.760;6.632;2022-12-18T15:26:05;-1.30;99.90
28530;DHT22;15737;49.760;6.632;2022-12-18T15:28:37;-1.50;99.90
28530;DHT22;15737;49.760;6.632;2022-12-18T15:33:34;-1.50;99.90
28530;DHT22;15737;49.760;6.632;2022-12-18T15:36:07;-1.50;99.90
28530;DHT22;15737;49.760;6.632;2022-12-18T15:38:33;-1.40;99.90
28530;DHT22;15737;49.760;6.632;2022-12-18T15:46:25;-1.40;99.90
28530;DHT22;15737;49.760;6.632;2022-12-18T15:48:54;-1.40;99.90
28530;DHT22;15737;49.760;6.632;2022-12-18T15:53:51;-1.60;99.90
28530;DHT22;15737;49.760;6.632;2022-12-18T15:58:52;-2.40;99.90
28530;DHT22;15737;49.760;6.632;2022-12-18T16:01:18;-2.70;99.90
28530;DHT22;15737;49.760;6.632;2022-12-18T16:03:44;-2.90;99.90
28530;DHT22;15737;49.760;6.632;2022-12-18T16:06:10;-2.80;99.90
28530;DHT22;15737;49.760;6.632;2022-12-18T16:08:35;-2.80;99.90
28530;DHT22;15737;49.760;6.632;2022-12-18T16:11:01;-2.90;99.90
28530;DHT22;15737;49.760;6.632;2022-12-18T16:13:27;-3.10;99.90
28530;DHT22;15737;49.760;6.632;2022-12-18T16:15:52;-3.10;99.90
28530;DHT22;15737;49.760;6.632;2022-12-18T16:18:18;-3.00;99.90
28530;DHT22;15737;49.760;6.632;2022-12-18T16:20:43;-2.70;99.90
28530;DHT22;15737;49.760;6.632;2022-12-18T16:25:44;-2.60;99.90
28530;DHT22;15737;49.760;6.632;2022-12-18T16:28:09;-2.70;99.90
28530;DHT22;15737;49.760;6.632;2022-12-18T16:30:35;-2.90;99.90
28530;DHT22;15737;49.760;6.632;2022-12-18T16:33:01;-3.00;99.90
28530;DHT22;15737;49.760;6.632;2022-12-18T16:35:26;-3.10;99.90
28530;DHT22;15737;49.760;6.632;2022-12-18T16:37:52;-3.10;99.90
28530;DHT22;15737;49.760;6.632;2022-12-18T16:40:18;-3.10;99.90
28530;DHT22;15737;49.760;6.632;2022-12-18T16:42:45;-3.20;99.90
28530;DHT22;15737;49.760;6.632;2022-12-18T16:45:12;-3.30;99.90
28530;DHT22;15737;49.760;6.632;2022-12-18T16:47:39;-3.40;99.90
28530;DHT22;15737;49.760;6.632;2022-12-18T16:50:06;-3.50;99.90
28530;DHT22;15737;49.760;6.632;2022-12-18T16:52:31;-3.50;99.90
28530;DHT22;15737;49.760;6.632;2022-12-18T16:54:57;-3.40;99.90
28530;DHT22;15737;49.760;6.632;2022-12-18T16:57:22;-3.40;99.90
28530;DHT22;15737;49.760;6.632;2022-12-18T16:59:48;-3.40;99.90
28530;DHT22;15737;49.760;6.632;2022-12-18T17:02:25;-3.20;99.90
28530;DHT22;15737;49.760;6.632;2022-12-18T17:04:57;-2.90;99.90
28530;DHT22;15737;49.760;6.632;2022-12-18T17:07:23;-2.80;99.90
28530;DHT22;15737;49.760;6.632;2022-12-18T17:09:49;-2.80;99.90
28530;DHT22;15737;49.760;6.632;2022-12-18T17:12:15;-2.70;99.90
28530;DHT22;15737;49.760;6.632;2022-12-18T17:14:41;-2.40;99.90
28530;DHT22;15737;49.760;6.632;2022-12-18T17:17:06;-2.00;99.90
28530;DHT22;15737;49.760;6.632;2022-12-18T17:19:32;-1.80;99.90
28530;DHT22;15737;49.760;6.632;2022-12-18T17:21:58;-1.70;99.90
28530;DHT22;15737;49.760;6.632;2022-12-18T17:24:23;-1.80;99.90
28530;DHT22;15737;49.760;6.632;2022-12-18T17:26:49;-2.00;99.90
28530;DHT22;15737;49.760;6.632;2022-12-18T17:29:17;-2.20;99.90
28530;DHT22;15737;49.760;6.632;2022-12-18T17:31:44;-2.20;99.90
28530;DHT22;15737;49.760;6.632;2022-12-18T17:34:11;-2.10;99.90
28530;DHT22;15737;49.760;6.632;2022-12-18T17:36:37;-2.00;99.90
28530;DHT22;15737;49.760;6.632;2022-12-18T17:39:04;-1.80;99.90
28530;DHT22;15737;49.760;6.632;2022-12-18T17:41:30;-1.70;99.90
28530;DHT22;15737;49.760;6.632;2022-12-18T17:46:28;-1.60;99.90
28530;DHT22;15737;49.760;6.632;2022-12-18T17:48:58;-1.40;99.90
28530;DHT22;15737;49.760;6.632;2022-12-18T17:51:24;-1.20;99.90
28530;DHT22;15737;49.760;6.632;2022-12-18T17:53:50;-1.10;99.90
28530;DHT22;15737;49.760;6.632;2022-12-18T17:56:17;-1.10;99.90
28530;DHT22;15737;49.760;6.632;2022-12-18T18:01:24;-1.00;99.90
28530;DHT22;15737;49.760;6.632;2022-12-18T18:03:50;-1.00;99.90
28530;DHT22;15737;49.760;6.632;2022-12-18T18:06:16;-1.20;99.90
28530;DHT22;15737;49.760;6.632;2022-12-18T18:08:42;-1.40;99.90
28530;DHT22;15737;49.760;6.632;2022-12-18T18:11:12;-1.60;99.90
28530;DHT22;15737;49.760;6.632;2022-12-18T18:13:57;-1.60;99.90
28530;DHT22;15737;49.760;6.632;2022-12-18T18:19:22;-2.00;99.90
28530;DHT22;15737;49.760;6.632;2022-12-18T18:21:51;-2.10;99.90
28530;DHT22;15737;49.760;6.632;2022-12-18T18:24:18;-2.20;99.90
28530;DHT22;15737;49.760;6.632;2022-12-18T18:26:44;-2.20;99.90
28530;DHT22;15737;49.760;6.632;2022-12-18T18:29:22;-2.20;99.90
28530;DHT22;15737;49.760;6.632;2022-12-18T18:34:21;-2.30;99.90
28530;DHT22;15737;49.760;6.632;2022-12-18T18:36:47;-2.20;99.90
28530;DHT22;15737;49.760;6.632;2022-12-18T18:39:13;-2.10;99.90
28530;DHT22;15737;49.760;6.632;2022-12-18T18:41:39;-2.00;99.90
28530;DHT22;15737;49.760;6.632;2022-12-18T18:44:05;-2.00;99.90
28530;DHT22;15737;49.760;6.632;2022-12-18T18:51:41;-2.00;99.90
28530;DHT22;15737;49.760;6.632;2022-12-18T18:54:08;-1.90;99.90
28530;DHT22;15737;49.760;6.632;2022-12-18T18:56:34;-1.80;99.90
28530;DHT22;15737;49.760;6.632;2022-12-18T18:58:59;-1.60;99.90
28530;DHT22;15737;49.760;6.632;2022-12-18T19:01:25;-1.60;99.90
28530;DHT22;15737;49.760;6.632;2022-12-18T19:06:23;-1.70;99.90
28530;DHT22;15737;49.760;6.632;2022-12-18T19:08:50;-1.70;99.90
28530;DHT22;15737;49.760;6.632;2022-12-18T19:11:16;-1.70;99.90
28530;DHT22;15737;49.760;6.632;2022-12-18T19:14:01;-1.60;99.90
28530;DHT22;15737;49.760;6.632;2022-12-18T19:19:07;-1.40;99.90
28530;DHT22;15737;49.760;6.632;2022-12-18T19:21:33;-1.30;99.90
28530;DHT22;15737;49.760;6.632;2022-12-18T19:23:59;-1.30;99.90
28530;DHT22;15737;49.760;6.632;2022-12-18T19:26:25;-1.50;99.90
28530;DHT22;15737;49.760;6.632;2022-12-18T19:28:52;-1.60;99.90
28530;DHT22;15737;49.760;6.632;2022-12-18T19:34:05;-1.50;99.90
28530;DHT22;15737;49.760;6.632;2022-12-18T19:36:32;-1.40;99.90
28530;DHT22;15737;49.760;6.632;2022-12-18T19:39:00;-1.30;99.90
28530;DHT22;15737;49.760;6.632;2022-12-18T19:41:27;-1.30;99.90
28530;DHT22;15737;49.760;6.632;2022-12-18T19:43:53;-1.30;99.90
28530;DHT22;15737;49.760;6.632;2022-12-18T19:48:59;-1.20;99.90
28530;DHT22;15737;49.760;6.632;2022-12-18T19:51:27;-1.00;99.90
28530;DHT22;15737;49.760;6.632;2022-12-18T19:53:57;-1.00;99.90
28530;DHT22;15737;49.760;6.632;2022-12-18T19:56:24;-1.10;99.90
28530;DHT22;15737;49.760;6.632;2022-12-18T20:04:09;-1.10;99.90
28530;DHT22;15737;49.760;6.632;2022-12-18T20:06:48;-1.00;99.90